^^
Garrymore Weather Station Historical Data
 
Daily Summary for April 23, 2019 Units:  Metric    English   Both
Daily Weekly Monthly Yearly Custom
  Current: High: Low: Average:
Temperature: 12.3 °C 12.3 °C 8.6 °C 9.6 °C
Dew Point: 8.6 °C 8.6 °C 6.2 °C 7 °C
Humidity: 78% 89% 77% 84%
Wind Speed: 1.6km/h 4.8km/h 0km/h 1.6km/h
Wind Gust: 4.8km/h 11.3km/h - -
WindNE - - ESE
Pressure: 999.5 hPa 1002.6 hPa 999.5 hPa -
Precipitation: 0 mm      
Historical Graphs
 
 


Weather Camera

Weather Camera




Garrymore Current Conditions

Weather Underground PWS IOFFALYG2
Tabular Data for April 23, 2019
Time Temperature Dew Point Pressure Wind Wind Speed Wind Gust Humidity Rainfall Rate (Hourly) Conditions
00:00 10.1 °C 6.8 °C 1002.3 hPa South 4.8 km/h 11.3 km/h 80% 0 mm BKN
00:05 10 °C 6.7 °C 1002.3 hPa South 4.8 km/h 11.3 km/h 80% 0 mm BKN
00:10 9.8 °C 6.7 °C 1001.9 hPa South 4.8 km/h 9.7 km/h 81% 0 mm BKN
00:15 9.8 °C 6.7 °C 1002.3 hPa South 4.8 km/h 9.7 km/h 81% 0 mm BKN
00:20 9.8 °C 6.7 °C 1002.3 hPa South 4.8 km/h 8 km/h 81% 0 mm BKN
00:25 9.7 °C 6.8 °C 1001.9 hPa South 4.8 km/h 9.7 km/h 82% 0 mm BKN
00:30 9.7 °C 6.8 °C 1002.3 hPa South 4.8 km/h 11.3 km/h 82% 0 mm BKN
00:35 9.7 °C 6.8 °C 1002.3 hPa South 4.8 km/h 9.7 km/h 82% 0 mm BKN
00:40 9.6 °C 6.7 °C 1002.3 hPa SSE 4.8 km/h 8 km/h 82% 0 mm BKN
00:45 9.6 °C 6.7 °C 1002.3 hPa South 4.8 km/h 9.7 km/h 82% 0 mm BKN
00:50 9.6 °C 6.7 °C 1001.9 hPa South 3.2 km/h 8 km/h 82% 0 mm BKN
00:55 9.6 °C 6.7 °C 1002.3 hPa South 3.2 km/h 8 km/h 82% 0 mm BKN
01:00 9.6 °C 6.7 °C 1002.3 hPa South 4.8 km/h 8 km/h 82% 0 mm BKN
01:05 9.5 °C 6.6 °C 1002.6 hPa SSE 4.8 km/h 8 km/h 82% 0 mm BKN
01:10 9.5 °C 6.6 °C 1002.3 hPa SE 3.2 km/h 8 km/h 82% 0 mm BKN
01:15 9.4 °C 6.5 °C 1002.3 hPa SSE 3.2 km/h 8 km/h 82% 0 mm BKN
01:20 9.4 °C 6.3 °C 1001.9 hPa SSE 1.6 km/h 6.4 km/h 81% 0 mm BKN
01:25 9.4 °C 6.3 °C 1002.3 hPa SSE 3.2 km/h 6.4 km/h 81% 0 mm BKN
01:30 9.4 °C 6.3 °C 1001.9 hPa South 4.8 km/h 8 km/h 81% 0 mm BKN
01:35 9.4 °C 6.5 °C 1001.9 hPa South 3.2 km/h 8 km/h 82% 0 mm BKN
01:40 9.4 °C 6.5 °C 1001.9 hPa South 1.6 km/h 4.8 km/h 82% 0 mm BKN
01:45 9.4 °C 6.5 °C 1001.9 hPa SE 1.6 km/h 3.2 km/h 82% 0 mm BKN
01:50 8.9 °C 6.2 °C 1001.9 hPa ESE 1.6 km/h 4.8 km/h 83% 0 mm BKN
01:55 8.9 °C 6.2 °C 1001.9 hPa SE 1.6 km/h 6.4 km/h 83% 0 mm BKN
02:00 8.9 °C 6.2 °C 1001.9 hPa SSE 3.2 km/h 4.8 km/h 83% 0 mm BKN
02:05 8.9 °C 6.2 °C 1001.9 hPa SE 1.6 km/h 4.8 km/h 83% 0 mm BKN
02:10 8.9 °C 6.2 °C 1001.9 hPa SE 1.6 km/h 4.8 km/h 83% 0 mm BKN
02:15 8.9 °C 6.2 °C 1001.9 hPa SE 1.6 km/h 3.2 km/h 83% 0 mm BKN
02:20 8.9 °C 6.2 °C 1001.9 hPa SE 1.6 km/h 3.2 km/h 83% 0 mm BKN
02:25 8.9 °C 6.2 °C 1001.9 hPa SE 1.6 km/h 4.8 km/h 83% 0 mm BKN
02:30 8.9 °C 6.2 °C 1001.9 hPa SE 1.6 km/h 3.2 km/h 83% 0 mm BKN
02:35 8.9 °C 6.3 °C 1001.9 hPa ESE 1.6 km/h 3.2 km/h 84% 0 mm BKN
02:40 8.9 °C 6.3 °C 1001.6 hPa ESE 1.6 km/h 3.2 km/h 84% 0 mm BKN
02:45 8.9 °C 6.3 °C 1001.9 hPa ESE 1.6 km/h 3.2 km/h 84% 0 mm BKN
02:50 8.9 °C 6.3 °C 1001.9 hPa ESE 1.6 km/h 3.2 km/h 84% 0 mm BKN
02:55 8.9 °C 6.3 °C 1001.6 hPa ESE 1.6 km/h 4.8 km/h 84% 0 mm BKN
03:00 8.9 °C 6.3 °C 1001.9 hPa Calm   6.4 km/h 84% 0 mm BKN
03:05 8.9 °C 6.3 °C 1001.6 hPa East 3.2 km/h 6.4 km/h 84% 0 mm BKN
03:10 8.9 °C 6.3 °C 1001.9 hPa East 1.6 km/h 6.4 km/h 84% 0 mm BKN
03:15 8.9 °C 6.5 °C 1001.9 hPa ESE 1.6 km/h 3.2 km/h 85% 0 mm BKN
03:20 8.9 °C 6.5 °C 1001.6 hPa SE 1.6 km/h 3.2 km/h 85% 0 mm BKN
03:25 8.9 °C 6.5 °C 1001.9 hPa Calm   3.2 km/h 85% 0 mm BKN
03:30 8.9 °C 6.5 °C 1001.6 hPa SE 1.6 km/h 4.8 km/h 85% 0 mm BKN
03:35 8.9 °C 6.5 °C 1001.2 hPa Calm   3.2 km/h 85% 0 mm BKN
03:40 8.9 °C 6.5 °C 1001.6 hPa SE 1.6 km/h 3.2 km/h 85% 0 mm BKN
03:45 8.9 °C 6.5 °C 1001.2 hPa SSE 1.6 km/h 3.2 km/h 85% 0 mm BKN
03:50 8.9 °C 6.7 °C 1001.2 hPa Calm   3.2 km/h 86% 0 mm BKN
03:55 8.9 °C 6.7 °C 1001.6 hPa SSE 1.6 km/h 4.8 km/h 86% 0 mm BKN
04:00 8.9 °C 6.7 °C 1001.2 hPa SSE 1.6 km/h 3.2 km/h 86% 0 mm BKN
04:05 8.9 °C 6.7 °C 1001.2 hPa SSE 1.6 km/h 3.2 km/h 86% 0 mm BKN
04:10 8.9 °C 6.7 °C 1001.2 hPa SE 1.6 km/h 3.2 km/h 86% 0 mm BKN
04:15 8.9 °C 6.7 °C 1001.2 hPa Calm   3.2 km/h 86% 0 mm BKN
04:20 8.9 °C 6.7 °C 1001.2 hPa Calm   1.6 km/h 86% 0 mm BKN
04:25 8.9 °C 6.7 °C 1001.2 hPa Calm   3.2 km/h 86% 0 mm BKN
04:30 8.9 °C 6.7 °C 1001.2 hPa East 1.6 km/h 3.2 km/h 86% 0 mm BKN
04:35 8.9 °C 6.7 °C 1001.2 hPa Calm   3.2 km/h 86% 0 mm BKN
04:40 8.9 °C 6.7 °C 1001.2 hPa Calm   3.2 km/h 86% 0 mm BKN
04:45 8.9 °C 6.8 °C 1001.2 hPa Calm   3.2 km/h 87% 0 mm BKN
04:50 8.9 °C 6.8 °C 1001.2 hPa Calm   3.2 km/h 87% 0 mm BKN
04:55 8.9 °C 6.8 °C 1000.9 hPa Calm   3.2 km/h 87% 0 mm BKN
05:00 8.9 °C 6.8 °C 1000.6 hPa East 1.6 km/h 3.2 km/h 87% 0 mm BKN
05:05 8.9 °C 6.8 °C 1000.6 hPa Calm   1.6 km/h 87% 0 mm BKN
05:10 8.9 °C 6.8 °C 1000.6 hPa NE 1.6 km/h 3.2 km/h 87% 0 mm BKN
05:15 8.9 °C 6.8 °C 1000.6 hPa NE 1.6 km/h 3.2 km/h 87% 0 mm BKN
05:20 8.9 °C 6.8 °C 1000.6 hPa NE 3.2 km/h 4.8 km/h 87% 0 mm BKN
05:25 8.9 °C 6.8 °C 1000.6 hPa NE 1.6 km/h 6.4 km/h 87% 0 mm BKN
05:30 8.7 °C 6.7 °C 1000.6 hPa ENE 1.6 km/h 4.8 km/h 87% 0 mm BKN
05:35 8.7 °C 6.7 °C 1000.9 hPa East 1.6 km/h 6.4 km/h 87% 0 mm BKN
05:40 8.7 °C 6.7 °C 1000.9 hPa East 1.6 km/h 6.4 km/h 87% 0 mm BKN
05:45 8.7 °C 6.8 °C 1000.6 hPa ENE 1.6 km/h 4.8 km/h 88% 0 mm BKN
05:50 8.7 °C 6.8 °C 1000.9 hPa ENE 1.6 km/h 3.2 km/h 88% 0 mm BKN
05:55 8.7 °C 6.8 °C 1000.6 hPa ENE 1.6 km/h 3.2 km/h 88% 0 mm BKN
06:00 8.7 °C 6.8 °C 1000.9 hPa ENE 1.6 km/h 3.2 km/h 88% 0 mm BKN
06:05 8.7 °C 6.8 °C 1000.6 hPa Calm   3.2 km/h 88% 0 mm BKN
06:10 8.6 °C 6.7 °C 1000.6 hPa Calm   3.2 km/h 88% 0 mm BKN
06:15 8.6 °C 6.7 °C 1000.6 hPa Calm   3.2 km/h 88% 0 mm BKN
06:20 8.6 °C 6.7 °C 1000.6 hPa NE 1.6 km/h 3.2 km/h 88% 0 mm BKN
06:25 8.6 °C 6.7 °C 1000.2 hPa NE 1.6 km/h 3.2 km/h 88% 0 mm BKN
06:30 8.6 °C 6.7 °C 1000.6 hPa Calm   3.2 km/h 88% 0 mm BKN
06:35 8.6 °C 6.9 °C 1000.6 hPa Calm   3.2 km/h 89% 0 mm BKN
06:40 8.7 °C 7 °C 1000.6 hPa East 1.6 km/h 3.2 km/h 89% 0 mm BKN
06:45 8.7 °C 7 °C 1000.6 hPa ESE 1.6 km/h 3.2 km/h 89% 0 mm BKN
06:50 8.7 °C 7 °C 1000.6 hPa Calm   3.2 km/h 89% 0 mm BKN
06:55 8.7 °C 7 °C 1000.6 hPa Calm   3.2 km/h 89% 0 mm BKN
07:00 8.7 °C 7 °C 1000.2 hPa Calm   3.2 km/h 89% 0 mm BKN
07:05 8.7 °C 7 °C 1000.2 hPa Calm   1.6 km/h 89% 0 mm BKN
07:10 8.7 °C 7 °C 1000.6 hPa Calm   3.2 km/h 89% 0 mm BKN
07:15 8.7 °C 7 °C 1000.6 hPa East 1.6 km/h 3.2 km/h 89% 0 mm BKN
07:20 8.7 °C 7 °C 1000.6 hPa ESE 1.6 km/h 3.2 km/h 89% 0 mm BKN
07:25 8.7 °C 7 °C 1000.6 hPa Calm   4.8 km/h 89% 0 mm BKN
07:30 8.7 °C 7 °C 1000.6 hPa SSE 1.6 km/h 3.2 km/h 89% 0 mm BKN
07:35 8.7 °C 7 °C 1000.6 hPa SE 1.6 km/h 3.2 km/h 89% 0 mm BKN
07:40 9.3 °C 7.4 °C 1000.6 hPa ESE 1.6 km/h 3.2 km/h 88% 0 mm BKN
07:45 9.4 °C 7.5 °C 1000.6 hPa ESE 1.6 km/h 3.2 km/h 88% 0 mm BKN
07:50 9.4 °C 7.5 °C 1000.6 hPa ESE 1.6 km/h 4.8 km/h 88% 0 mm BKN
07:55 9.4 °C 7.5 °C 1000.6 hPa East 1.6 km/h 4.8 km/h 88% 0 mm BKN
08:00 9.5 °C 7.6 °C 1000.6 hPa ENE 1.6 km/h 3.2 km/h 88% 0 mm BKN
08:05 9.5 °C 7.6 °C 1000.6 hPa Calm   3.2 km/h 88% 0 mm BKN
08:10 9.6 °C 7.7 °C 1000.6 hPa Calm   3.2 km/h 88% 0 mm BKN
08:15 9.9 °C 7.8 °C 1000.6 hPa Calm   3.2 km/h 87% 0 mm BKN
08:20 9.9 °C 7.8 °C 1000.2 hPa ENE 1.6 km/h 3.2 km/h 87% 0 mm BKN
08:25 9.9 °C 7.8 °C 1000.6 hPa ENE 1.6 km/h 3.2 km/h 87% 0 mm BKN
08:30 10 °C 7.6 °C 1000.6 hPa Calm   3.2 km/h 85% 0 mm BKN
08:35 10.1 °C 7.7 °C 1000.6 hPa Calm   3.2 km/h 85% 0 mm BKN
08:40 10.2 °C 7.8 °C 1000.6 hPa Calm   3.2 km/h 85% 0 mm BKN
08:45 10.4 °C 8 °C 1000.2 hPa ENE 1.6 km/h 3.2 km/h 85% 0 mm BKN
08:50 10.6 °C 8 °C 1000.2 hPa ENE 3.2 km/h 6.4 km/h 84% 0 mm BKN
08:55 10.7 °C 8.1 °C 1000.2 hPa Calm   4.8 km/h 84% 0 mm BKN
09:00 10.9 °C 8.1 °C 1000.2 hPa NE 1.6 km/h 3.2 km/h 83% 0 mm BKN
09:05 10.9 °C 8.1 °C 1000.2 hPa Calm   3.2 km/h 83% 0 mm BKN
09:10 11 °C 7.9 °C 1000.6 hPa East 1.6 km/h 3.2 km/h 81% 0 mm BKN
09:15 11.1 °C 7.9 °C 1000.2 hPa ENE 1.6 km/h 3.2 km/h 81% 0 mm BKN
09:20 11.1 °C 7.8 °C 1000.2 hPa ENE 1.6 km/h 3.2 km/h 80% 0 mm -RA
09:25 11.2 °C 7.9 °C 1000.2 hPa ENE 1.6 km/h 3.2 km/h 80% 0 mm -RA
09:30 11.3 °C 8 °C 1000.2 hPa ENE 1.6 km/h 4.8 km/h 80% 0 mm -RA
09:35 11.3 °C 7.8 °C 1000.2 hPa ENE 1.6 km/h 4.8 km/h 79% 0 mm -RA
09:40 11.4 °C 7.9 °C 1000.2 hPa ENE 1.6 km/h 4.8 km/h 79% 0 mm -RA
09:45 11.5 °C 8 °C 1000.2 hPa ENE 1.6 km/h 4.8 km/h 79% 0 mm -RA
09:50 11.5 °C 7.8 °C 999.9 hPa ENE 1.6 km/h 3.2 km/h 78% 0 mm -RA
09:55 11.5 °C 7.8 °C 999.9 hPa Calm   1.6 km/h 78% 0 mm -RA
10:00 11.5 °C 7.8 °C 999.9 hPa NE 1.6 km/h 3.2 km/h 78% 0 mm -RA
10:05 11.5 °C 7.8 °C 999.9 hPa Calm   3.2 km/h 78% 0 mm -RA
10:10 11.5 °C 7.8 °C 999.9 hPa NE 3.2 km/h 4.8 km/h 78% 0 mm -RA
10:15 11.5 °C 7.8 °C 999.9 hPa NE 1.6 km/h 4.8 km/h 78% 0 mm -RA
10:20 11.6 °C 7.9 °C 999.9 hPa NE 1.6 km/h 4.8 km/h 78% 0 mm BKN
10:25 11.6 °C 7.9 °C 999.5 hPa NE 3.2 km/h 6.4 km/h 78% 0 mm BKN
10:30 11.6 °C 7.9 °C 999.5 hPa NE 3.2 km/h 6.4 km/h 78% 0 mm BKN
10:35 11.7 °C 8 °C 999.5 hPa NE 1.6 km/h 4.8 km/h 78% 0 mm BKN
10:40 11.7 °C 8 °C 999.9 hPa Calm   3.2 km/h 78% 0 mm BKN
10:45 11.8 °C 8.1 °C 999.5 hPa Calm   3.2 km/h 78% 0 mm BKN
10:50 11.8 °C 8.1 °C 999.5 hPa Calm   4.8 km/h 78% 0 mm BKN
10:55 12 °C 8.1 °C 999.5 hPa Calm   1.6 km/h 77% 0 mm BKN
11:00 12.3 °C 8.6 °C 999.5 hPa NE 1.6 km/h 4.8 km/h 78% 0 mm BKN
Garrymore Weather Station, Geashill, Tullamore, Offaly, Ireland
Compliments of Weather Underground - 1.5 mb